Time;durP1;ratioP1;P1;durP2;ratioP2;P2;SDS_P1;SDS_P2;PMS_P1;PMS_P2;Temp;Humidity;BMP_temperature;BMP_pressure;BME280_temperature;BME280_humidity;BME280_pressure;Samples;Min_cycle;Max_cycle;Signal;HPM_P1;HPM_P2
2023/09/08 00:32:54;1195379.00;3.98;2081.87;7346.00;0.02;13.35;;;;;22.80;1.00;;;;;;2274471;61;955;-90
2023/09/08 00:55:09;1149864.00;3.83;1999.83;0.00;0.00;0.62;;;;;22.50;1.00;;;;;;2363659;55;3687;-90
2023/09/08 01:22:50;1208150.00;4.03;2104.96;0.00;0.00;0.62;;;;;22.00;1.00;;;;;;2274686;61;1019;-91
2023/09/08 02:22:39;1077143.00;3.59;1869.60;0.00;0.00;0.62;;;;;22.20;1.00;;;;;;2032766;55;3499;-90
2023/09/08 02:50:05;1168043.00;3.89;2032.55;0.00;0.00;0.62;;;;;22.50;1.00;;;;;;2274579;61;1324;-90
2023/09/08 04:02:37;1552559.00;5.18;2742.41;0.00;0.00;0.62;;;;;22.00;1.00;;;;;;1659572;39;3453;-89
2023/09/08 04:50:02;2198997.00;7.33;4041.26;124683.00;0.42;216.16;;;;;21.80;1.00;;;;;;2314945;55;3730;-89
2023/09/08 05:15:06;1163372.00;3.88;2024.13;74341.00;0.25;129.26;;;;;21.30;1.00;;;;;;2277941;61;1413;-89
2023/09/08 05:49:56;932104.00;3.11;1612.58;20206.00;0.07;35.63;;;;;26.70;1.00;;;;;;2328934;39;3610;-87
2023/09/08 05:52:23;1082054.00;3.61;1878.36;59364.00;0.20;103.38;;;;;27.00;1.00;;;;;;2313736;55;3801;-87
2023/09/08 06:07:21;1407057.00;4.69;2469.42;0.00;0.00;0.62;;;;;28.30;1.00;;;;;;2357740;55;3672;-89
2023/09/08 06:14:50;1008710.00;3.36;1747.90;0.00;0.00;0.62;;;;;30.20;1.00;;;;;;2297353;39;3521;-88
2023/09/08 06:19:45;1490337.00;4.97;2624.95;38335.00;0.13;67.01;;;;;30.60;1.00;;;;;;2277277;61;1400;-90
2023/09/08 06:22:12;370584.00;1.24;639.24;0.00;0.00;0.62;;;;;30.20;1.00;;;;;;2275639;61;2009;-91
2023/09/08 06:27:11;925093.00;3.08;1600.24;0.00;0.00;0.62;;;;;29.70;1.00;;;;;;2310791;55;3651;-91
2023/09/08 06:37:06;1119601.00;3.73;1945.51;0.00;0.00;0.62;;;;;30.40;1.00;;;;;;2277967;61;1214;-87
2023/09/08 06:44:42;1026276.00;3.42;1779.07;0.00;0.00;0.62;;;;;29.40;1.00;;;;;;2277969;61;1221;-87
2023/09/08 06:57:16;743509.00;2.48;1282.77;0.00;0.00;0.62;;;;;29.70;1.00;;;;;;2277961;61;1427;-89
2023/09/08 07:09:51;1013570.00;3.38;1756.52;0.00;0.00;0.62;;;;;30.50;1.00;;;;;;2274532;61;1424;-89
2023/09/08 07:17:19;856892.00;2.86;1480.53;0.00;0.00;0.62;;;;;32.10;1.00;;;;;;2290904;39;3678;-89
2023/09/08 07:19:46;78238.00;0.26;135.99;0.00;0.00;0.62;;;;;32.50;1.00;;;;;;2280496;61;1470;-88
2023/09/08 07:22:13;141989.00;0.47;246.00;0.00;0.00;0.62;;;;;32.90;1.00;;;;;;2280066;61;1999;-90
2023/09/08 07:27:15;1297413.00;4.32;2267.37;0.00;0.00;0.62;;;;;33.40;1.00;;;;;;790532;40;3422;-89
2023/09/08 07:29:42;189849.00;0.63;328.45;59896.00;0.20;104.30;;;;;33.50;1.00;;;;;;2280343;61;1594;-87
2023/09/08 07:32:10;439878.00;1.47;758.37;29980.00;0.10;52.55;;;;;33.00;1.00;;;;;;2280265;61;1461;-89
2023/09/08 07:34:37;223742.00;0.75;386.78;0.00;0.00;0.62;;;;;32.70;1.00;;;;;;2280328;61;1764;-86
2023/09/08 07:39:35;617665.00;2.06;1064.73;40751.00;0.14;71.19;;;;;33.00;1.00;;;;;;2278200;61;1394;-89
2023/09/08 07:42:02;266959.00;0.89;461.11;0.00;0.00;0.62;;;;;33.30;1.00;;;;;;2276534;61;1915;-87
2023/09/08 07:44:31;310507.00;1.04;535.98;30660.00;0.10;53.73;;;;;34.00;1.00;;;;;;2276357;61;937;-87
2023/09/08 07:46:58;353969.00;1.18;610.68;912.00;0.00;2.20;;;;;33.70;1.00;;;;;;2276256;61;1536;-90
2023/09/08 07:49:25;320153.00;1.07;552.56;0.00;0.00;0.62;;;;;33.20;1.00;;;;;;2276391;61;1365;-88
2023/09/08 07:51:52;522252.00;1.74;900.14;175010.00;0.58;302.90;;;;;34.20;1.00;;;;;;2276453;61;1464;-88
2023/09/08 07:54:19;149799.00;0.50;259.46;0.00;0.00;0.62;;;;;34.20;1.00;;;;;;2276285;61;1449;-89
2023/09/08 07:56:47;218301.00;0.73;377.42;61275.00;0.20;106.68;;;;;33.80;1.00;;;;;;2276312;61;1105;-88
2023/09/08 07:59:14;550441.00;1.83;948.72;68082.00;0.23;118.45;;;;;33.30;1.00;;;;;;2276277;61;1576;-88
2023/09/08 08:01:42;286566.00;0.96;494.83;0.00;0.00;0.62;;;;;33.50;1.00;;;;;;2276312;61;1998;-90
2023/09/08 08:04:09;217616.00;0.73;376.24;0.00;0.00;0.62;;;;;33.60;1.00;;;;;;2276471;61;1597;-88
2023/09/08 08:06:38;173160.00;0.58;299.71;0.00;0.00;0.62;;;;;33.80;1.00;;;;;;2276423;61;1688;-87
2023/09/08 08:09:05;186193.00;0.62;322.15;0.00;0.00;0.62;;;;;34.00;1.00;;;;;;2276427;61;1285;-87
2023/09/08 08:11:32;194284.00;0.65;336.08;45980.00;0.15;80.23;;;;;34.50;1.00;;;;;;2276323;61;1051;-87
2023/09/08 08:13:58;439432.00;1.46;757.61;151234.00;0.50;261.93;;;;;34.80;1.00;;;;;;2276264;61;1530;-87
2023/09/08 08:16:26;162940.00;0.54;282.10;0.00;0.00;0.62;;;;;34.30;1.00;;;;;;2276176;61;969;-87
2023/09/08 08:23:52;422489.00;1.41;728.47;0.00;0.00;0.62;;;;;33.20;1.00;;;;;;2281783;61;1211;-90
2023/09/08 08:32:03;740420.00;2.47;1277.40;64161.00;0.21;111.67;;;;;32.10;1.00;;;;;;2294096;55;3728;-90
2023/09/08 08:37:16;727410.00;2.42;1254.80;0.00;0.00;0.62;;;;;31.90;1.00;;;;;;2273883;61;1363;-89
2023/09/08 08:44:44;520469.00;1.73;897.07;0.00;0.00;0.62;;;;;30.90;1.00;;;;;;2278074;61;1259;-90
2023/09/08 08:52:17;765904.00;2.55;1321.72;7371.00;0.02;13.39;;;;;30.60;1.00;;;;;;2282322;60;1363;-89
2023/09/08 09:02:14;415932.00;1.39;717.20;0.00;0.00;0.62;;;;;30.60;1.00;;;;;;2274379;61;1973;-88
2023/09/08 09:04:42;85081.00;0.28;147.81;18636.00;0.06;32.91;;;;;30.70;1.00;;;;;;2272342;61;1574;-89
2023/09/08 09:07:09;141293.00;0.47;244.80;0.00;0.00;0.62;;;;;30.40;1.00;;;;;;2272373;61;1052;-88
2023/09/08 09:09:36;66893.00;0.22;116.39;0.00;0.00;0.62;;;;;30.00;1.00;;;;;;2272096;61;1664;-91
2023/09/08 09:12:03;185674.00;0.62;321.26;0.00;0.00;0.62;;;;;30.20;1.00;;;;;;2284882;39;3710;-91
2023/09/08 09:16:59;457541.00;1.53;788.75;0.00;0.00;0.62;;;;;30.30;1.00;;;;;;2287880;39;3486;-89
2023/09/08 09:19:29;304098.00;1.01;524.96;0.00;0.00;0.62;;;;;30.40;1.00;;;;;;2284181;60;1820;-90
2023/09/08 09:24:34;1009174.00;3.36;1748.73;0.00;0.00;0.62;;;;;30.30;1.00;;;;;;2274323;61;1417;-90
2023/09/08 09:32:06;378659.00;1.26;653.12;0.00;0.00;0.62;;;;;30.20;1.00;;;;;;2282175;60;1406;-90
2023/09/08 09:34:36;142347.00;0.47;246.62;0.00;0.00;0.62;;;;;30.10;1.00;;;;;;2280361;60;1715;-89
2023/09/08 09:39:36;1175523.00;3.92;2046.03;0.00;0.00;0.62;;;;;30.70;1.00;;;;;;2341342;40;3502;-89
2023/09/08 09:44:36;385858.00;1.29;665.49;0.00;0.00;0.62;;;;;31.00;1.00;;;;;;2281709;60;1426;-89
2023/09/08 09:47:04;148581.00;0.50;257.36;0.00;0.00;0.62;;;;;30.80;1.00;;;;;;2280356;60;1647;-90
2023/09/08 09:49:32;91755.00;0.31;159.34;0.00;0.00;0.62;;;;;30.50;1.00;;;;;;2280305;60;1580;-89
2023/09/08 09:52:00;296999.00;0.99;512.76;73148.00;0.24;127.20;;;;;30.20;1.00;;;;;;2280177;60;1620;-90
2023/09/08 09:56:57;632862.00;2.11;1091.00;47913.00;0.16;83.58;;;;;29.60;1.00;;;;;;2278365;61;1206;-89
2023/09/08 09:59:25;0.00;0.00;0.62;0.00;0.00;0.62;;;;;29.80;1.00;;;;;;2276208;61;1375;-90
2023/09/08 10:01:54;127617.00;0.43;221.22;0.00;0.00;0.62;;;;;30.20;1.00;;;;;;2276378;61;2004;-88
2023/09/08 10:04:21;77244.00;0.26;134.28;0.00;0.00;0.62;;;;;30.30;1.00;;;;;;2276993;61;1748;-90
2023/09/08 10:06:49;559247.00;1.86;963.90;130741.00;0.44;226.61;;;;;30.60;1.00;;;;;;2277024;61;1574;-88
2023/09/08 10:09:19;31264.00;0.10;54.77;0.00;0.00;0.62;;;;;30.70;1.00;;;;;;2276907;61;1548;-90
2023/09/08 10:11:49;0.00;0.00;0.62;0.00;0.00;0.62;;;;;30.40;1.00;;;;;;2287465;39;3585;-90
2023/09/08 10:14:18;240565.00;0.80;415.72;0.00;0.00;0.62;;;;;30.20;1.00;;;;;;2285027;60;1598;-88
2023/09/08 10:16:49;145529.00;0.49;252.10;0.00;0.00;0.62;;;;;30.30;1.00;;;;;;2285069;60;902;-88
2023/09/08 10:19:17;4423.00;0.01;8.29;0.00;0.00;0.62;;;;;30.20;1.00;;;;;;2285041;60;1626;-89
2023/09/08 10:21:47;127168.00;0.42;220.45;0.00;0.00;0.62;;;;;30.40;1.00;;;;;;2284982;60;1915;-89
2023/09/08 10:24:22;123978.00;0.41;214.94;0.00;0.00;0.62;;;;;30.80;1.00;;;;;;2285033;60;910;-91
2023/09/08 10:26:57;335563.00;1.12;579.05;140595.00;0.47;243.60;;;;;30.90;1.00;;;;;;2285080;60;1109;-92
2023/09/08 10:29:25;0.00;0.00;0.62;0.00;0.00;0.62;;;;;31.20;1.00;;;;;;2284900;60;1336;-89
2023/09/08 10:31:52;30994.00;0.10;54.30;0.00;0.00;0.62;;;;;31.30;1.00;;;;;;2284880;60;1574;-90
2023/09/08 10:34:20;60283.00;0.20;104.97;0.00;0.00;0.62;;;;;31.20;1.00;;;;;;2284798;60;1572;-89
2023/09/08 10:36:48;125346.00;0.42;217.30;0.00;0.00;0.62;;;;;31.10;1.00;;;;;;2284869;60;1316;-89
2023/09/08 10:39:31;0.00;0.00;0.62;0.00;0.00;0.62;;;;;31.40;1.00;;;;;;2284890;60;1253;-89
2023/09/08 10:42:24;56491.00;0.19;98.41;0.00;0.00;0.62;;;;;31.80;1.00;;;;;;2284946;60;1951;-89
2023/09/08 10:45:04;219891.00;0.73;380.16;0.00;0.00;0.62;;;;;31.30;1.00;;;;;;2283785;60;1654;-90
2023/09/08 10:47:43;85921.00;0.29;149.26;0.00;0.00;0.62;;;;;31.10;1.00;;;;;;2285008;60;1061;-90
2023/09/08 10:50:18;194315.00;0.65;336.14;0.00;0.00;0.62;;;;;31.40;1.00;;;;;;2284780;60;1582;-89
2023/09/08 10:55:16;377273.00;1.26;650.74;0.00;0.00;0.62;;;;;31.30;1.00;;;;;;2274315;61;1403;-90
2023/09/08 10:57:46;18719.00;0.06;33.05;0.00;0.00;0.62;;;;;31.10;1.00;;;;;;2272678;61;1542;-89
2023/09/08 11:00:20;330936.00;1.10;571.09;0.00;0.00;0.62;;;;;31.20;1.00;;;;;;2272716;61;1753;-89
2023/09/08 11:02:50;0.00;0.00;0.62;0.00;0.00;0.62;;;;;31.40;1.00;;;;;;2272705;61;1919;-90
2023/09/08 11:05:19;429674.00;1.43;740.83;92826.00;0.31;161.19;;;;;31.40;1.00;;;;;;2272626;61;1611;-89
2023/09/08 11:07:49;125584.00;0.42;217.71;0.00;0.00;0.62;;;;;31.00;1.00;;;;;;2272732;61;912;-90
2023/09/08 11:10:17;32906.00;0.11;57.61;0.00;0.00;0.62;;;;;31.10;1.00;;;;;;2272519;61;1476;-90
2023/09/08 11:12:44;471122.00;1.57;812.12;19882.00;0.07;35.07;;;;;31.20;1.00;;;;;;2309861;40;3590;-89
2023/09/08 11:15:11;149770.00;0.50;259.41;0.00;0.00;0.62;;;;;31.60;1.00;;;;;;2283743;39;3655;-88
2023/09/08 11:20:10;687674.00;2.29;1185.87;0.00;0.00;0.62;;;;;30.90;1.00;;;;;;2270115;61;1436;-89
2023/09/08 11:22:39;24472.00;0.08;43.01;0.00;0.00;0.62;;;;;31.40;1.00;;;;;;2268508;61;2006;-90
2023/09/08 11:25:08;0.00;0.00;0.62;0.00;0.00;0.62;;;;;31.70;1.00;;;;;;2280870;55;3794;-89
2023/09/08 11:35:21;329832.00;1.10;569.20;0.00;0.00;0.62;;;;;31.00;1.00;;;;;;1442309;39;3191;-90
2023/09/08 11:37:49;217712.00;0.73;376.41;0.00;0.00;0.62;;;;;31.20;1.00;;;;;;2326075;40;3666;-88
2023/09/08 11:58:07;843058.00;2.81;1456.32;0.00;0.00;0.62;;;;;31.60;1.00;;;;;;2297619;56;1934;-90
2023/09/08 12:19:29;801627.00;2.67;1383.96;31334.00;0.10;54.89;;;;;31.40;1.00;;;;;;2369864;56;1712;-89
2023/09/08 12:24:50;657505.00;2.19;1133.62;0.00;0.00;0.62;;;;;31.80;1.00;;;;;;2278558;61;1309;-89
2023/09/08 12:32:18;663908.00;2.21;1144.71;0.00;0.00;0.62;;;;;32.20;1.00;;;;;;2277869;61;1368;-91
2023/09/08 12:34:47;583747.00;1.95;1006.16;10846.00;0.04;19.41;;;;;31.90;1.00;;;;;;2276419;61;1755;-88
2023/09/08 12:37:14;695977.00;2.32;1200.26;22104.00;0.07;38.91;;;;;32.10;1.00;;;;;;2332972;40;3609;-89
2023/09/08 12:39:41;195912.00;0.65;338.89;0.00;0.00;0.62;;;;;32.00;1.00;;;;;;2282165;61;1265;-89
2023/09/08 12:44:37;1225053.00;4.08;2135.58;10342.00;0.03;18.54;;;;;31.50;1.00;;;;;;2277915;61;1371;-90
2023/09/08 12:49:34;1464048.00;4.88;2575.65;0.00;0.00;0.62;;;;;31.20;1.00;;;;;;2282129;61;1408;-89
2023/09/08 12:52:03;752949.00;2.51;1299.19;13046.00;0.04;23.23;;;;;31.10;1.00;;;;;;2296488;40;3600;-88
2023/09/08 13:02:12;288540.00;0.96;498.22;0.00;0.00;0.62;;;;;31.40;1.00;;;;;;1487137;59;1928;-89
2023/09/08 13:14:39;596157.00;1.99;1027.58;0.00;0.00;0.62;;;;;32.50;1.00;;;;;;2282361;61;1350;-89
2023/09/08 13:17:06;70693.00;0.24;122.96;0.00;0.00;0.62;;;;;32.70;1.00;;;;;;2280394;61;945;-89
2023/09/08 13:19:34;105233.00;0.35;182.60;0.00;0.00;0.62;;;;;33.00;1.00;;;;;;2280356;61;1485;-90
2023/09/08 13:24:31;510314.00;1.70;879.58;0.00;0.00;0.62;;;;;32.60;1.00;;;;;;2297112;55;3692;-89
2023/09/08 13:26:57;325751.00;1.09;562.18;0.00;0.00;0.62;;;;;32.00;1.00;;;;;;2306754;55;3741;-90
2023/09/08 13:37:07;486082.00;1.62;837.87;0.00;0.00;0.62;;;;;31.30;1.00;;;;;;2293006;39;3734;-91
2023/09/08 13:39:36;675584.00;2.25;1164.92;0.00;0.00;0.62;;;;;31.40;1.00;;;;;;2287187;55;3757;-90
2023/09/08 13:42:09;121710.00;0.41;211.03;0.00;0.00;0.62;;;;;31.40;1.00;;;;;;2296287;55;3856;-89
2023/09/08 13:52:10;853035.00;2.84;1473.78;0.00;0.00;0.62;;;;;31.30;1.00;;;;;;2282304;55;3657;-89
2023/09/08 14:04:34;1136710.00;3.79;1976.20;0.00;0.00;0.62;;;;;31.80;1.00;;;;;;2278620;61;1249;-89
2023/09/08 14:07:01;235762.00;0.79;407.46;0.00;0.00;0.62;;;;;31.90;1.00;;;;;;2276919;61;1739;-89
2023/09/08 14:12:01;489674.00;1.63;844.05;0.00;0.00;0.62;;;;;31.90;1.00;;;;;;2278812;61;1406;-89
2023/09/08 14:14:28;141683.00;0.47;245.47;0.00;0.00;0.62;;;;;31.90;1.00;;;;;;2283492;39;3631;-88
2023/09/08 14:16:55;146041.00;0.49;252.98;0.00;0.00;0.62;;;;;31.50;1.00;;;;;;2321177;55;3808;-91
2023/09/08 14:19:22;152689.00;0.51;264.44;0.00;0.00;0.62;;;;;31.30;1.00;;;;;;2282431;60;1581;-90
2023/09/08 14:21:51;218091.00;0.73;377.06;0.00;0.00;0.62;;;;;31.40;1.00;;;;;;2309929;56;3990;-90
2023/09/08 14:24:18;56839.00;0.19;99.01;0.00;0.00;0.62;;;;;31.80;1.00;;;;;;2281005;60;1804;-90
2023/09/08 14:31:43;392691.00;1.31;677.24;0.00;0.00;0.62;;;;;31.50;1.00;;;;;;2293873;55;3729;-90
2023/09/08 14:34:10;337328.00;1.12;582.08;0.00;0.00;0.62;;;;;31.60;1.00;;;;;;2278552;61;1418;-90
2023/09/08 14:36:36;204652.00;0.68;353.93;0.00;0.00;0.62;;;;;31.80;1.00;;;;;;2276760;61;1213;-90
2023/09/08 14:41:40;358352.00;1.19;618.22;0.00;0.00;0.62;;;;;31.60;1.00;;;;;;2352108;56;1814;-90
2023/09/08 14:49:06;998384.00;3.33;1729.61;0.00;0.00;0.62;;;;;31.30;1.00;;;;;;828823;40;3469;-89
2023/09/08 14:56:31;694743.00;2.32;1198.12;0.00;0.00;0.62;;;;;31.20;1.00;;;;;;2278437;61;1444;-89
2023/09/08 14:59:00;145357.00;0.48;251.81;0.00;0.00;0.62;;;;;31.40;1.00;;;;;;2276809;61;1390;-89
2023/09/08 15:01:27;200428.00;0.67;346.66;0.00;0.00;0.62;;;;;31.70;1.00;;;;;;2276876;61;1558;-88
2023/09/08 15:06:21;833572.00;2.78;1439.74;0.00;0.00;0.62;;;;;31.60;1.00;;;;;;2296970;55;3666;-88
2023/09/08 15:08:48;183546.00;0.61;317.60;0.00;0.00;0.62;;;;;31.20;1.00;;;;;;2279950;61;1713;-89
2023/09/08 15:28:44;1188665.00;3.96;2069.74;105702.00;0.35;183.41;;;;;30.80;1.00;;;;;;2340637;40;3514;-89
2023/09/08 15:38:42;848612.00;2.83;1466.04;54287.00;0.18;94.60;;;;;30.90;1.00;;;;;;2292720;55;3707;-89
2023/09/08 15:43:40;585523.00;1.95;1009.23;58956.00;0.20;102.67;;;;;30.40;1.00;;;;;;2303553;40;3578;-89
2023/09/08 15:46:10;394905.00;1.32;681.05;58781.00;0.20;102.37;;;;;30.50;1.00;;;;;;2284627;60;1212;-91
2023/09/08 16:03:43;543179.00;1.81;936.20;13981.00;0.05;24.85;;;;;30.90;1.00;;;;;;841162;59;2183;-88
2023/09/08 16:16:05;844737.00;2.82;1459.26;0.00;0.00;0.62;;;;;30.30;1.00;;;;;;2335709;55;3724;-86
2023/09/08 16:21:03;1340781.00;4.47;2346.94;33851.00;0.11;59.25;;;;;30.30;1.00;;;;;;2286356;39;3621;-89
2023/09/08 16:23:29;295827.00;0.99;510.75;0.00;0.00;0.62;;;;;30.20;1.00;;;;;;2331919;40;3625;-89
2023/09/08 16:30:53;876316.00;2.92;1514.56;6955.00;0.02;12.67;;;;;30.50;1.00;;;;;;2305931;56;3696;-89
2023/09/08 16:35:54;830441.00;2.77;1434.27;22003.00;0.07;38.74;;;;;30.60;1.00;;;;;;2278832;61;1307;-92
2023/09/08 16:48:20;776757.00;2.59;1340.62;0.00;0.00;0.62;;;;;30.10;1.00;;;;;;1971522;40;3386;-89
2023/09/08 16:50:47;76271.00;0.25;132.60;0.00;0.00;0.62;;;;;30.10;1.00;;;;;;2293719;39;4055;-88
2023/09/08 17:03:16;1063467.00;3.54;1845.21;0.00;0.00;0.62;;;;;30.20;1.00;;;;;;1236031;40;3516;-91
2023/09/08 17:32:59;623371.00;2.08;1074.59;0.00;0.00;0.62;;;;;30.00;1.00;;;;;;2290344;39;3566;-91
2023/09/08 17:35:25;176325.00;0.59;305.16;0.00;0.00;0.62;;;;;29.80;1.00;;;;;;2385664;39;3756;-91
2023/09/08 17:47:54;352469.00;1.17;608.10;0.00;0.00;0.62;;;;;29.30;1.00;;;;;;2285382;55;3648;-90
2023/09/08 18:00:20;987319.00;3.29;1710.03;0.00;0.00;0.62;;;;;29.70;1.00;;;;;;2278729;61;1348;-92
2023/09/08 18:30:12;495994.00;1.65;854.93;0.00;0.00;0.62;;;;;28.80;1.00;;;;;;1437818;40;3485;-90
2023/09/08 18:35:07;601025.00;2.00;1035.99;0.00;0.00;0.62;;;;;28.50;1.00;;;;;;2282483;61;1410;-87
2023/09/08 18:37:34;395942.00;1.32;682.83;0.00;0.00;0.62;;;;;28.60;1.00;;;;;;2280827;61;1792;-87
2023/09/08 18:40:01;208452.00;0.69;360.47;0.00;0.00;0.62;;;;;28.50;1.00;;;;;;2280776;61;1554;-88
2023/09/08 18:42:28;174798.00;0.58;302.53;0.00;0.00;0.62;;;;;28.40;1.00;;;;;;2280757;61;1914;-87
2023/09/08 18:44:55;191456.00;0.64;331.22;0.00;0.00;0.62;;;;;28.40;1.00;;;;;;2280859;61;1110;-89
2023/09/08 18:47:23;509783.00;1.70;878.67;73759.00;0.25;128.26;;;;;28.30;1.00;;;;;;2280676;61;1750;-89
2023/09/08 18:49:50;163038.00;0.54;282.27;0.00;0.00;0.62;;;;;28.20;1.00;;;;;;2280618;61;1553;-88
2023/09/08 18:52:17;219162.00;0.73;378.90;0.00;0.00;0.62;;;;;28.00;1.00;;;;;;2280757;61;1059;-88
2023/09/08 18:54:44;55718.00;0.19;97.07;0.00;0.00;0.62;;;;;27.90;1.00;;;;;;2280800;61;1022;-89
2023/09/08 18:57:11;286737.00;0.96;495.12;0.00;0.00;0.62;;;;;27.90;1.00;;;;;;2280611;61;1454;-89
2023/09/08 18:59:38;159985.00;0.53;277.01;0.00;0.00;0.62;;;;;27.80;1.00;;;;;;2280712;61;1387;-88
2023/09/08 19:02:06;269689.00;0.90;465.81;0.00;0.00;0.62;;;;;27.80;1.00;;;;;;2280819;61;922;-88
2023/09/08 19:04:34;43788.00;0.15;76.44;0.00;0.00;0.62;;;;;27.70;1.00;;;;;;2280766;61;2053;-87
2023/09/08 19:07:01;274884.00;0.92;474.74;0.00;0.00;0.62;;;;;27.60;1.00;;;;;;2280659;61;1180;-89
2023/09/08 19:09:28;335012.00;1.12;578.10;46187.00;0.15;80.59;;;;;27.50;1.00;;;;;;2280619;61;1460;-91
2023/09/08 19:11:55;262674.00;0.88;453.75;60096.00;0.20;104.64;;;;;27.40;1.00;;;;;;2280790;61;1208;-88
2023/09/08 19:14:25;298372.00;0.99;515.12;0.00;0.00;0.62;;;;;27.40;1.00;;;;;;2280698;61;1042;-89
2023/09/08 19:16:52;231794.00;0.77;400.64;60358.00;0.20;105.10;;;;;27.40;1.00;;;;;;2280814;61;1021;-89
2023/09/08 19:19:19;257206.00;0.86;444.34;0.00;0.00;0.62;;;;;27.30;1.00;;;;;;2280670;61;1595;-88
2023/09/08 19:21:48;458190.00;1.53;789.87;43153.00;0.14;75.34;;;;;27.20;1.00;;;;;;2280791;61;1037;-88
2023/09/08 19:24:17;603973.00;2.01;1041.08;100237.00;0.33;173.98;;;;;27.30;1.00;;;;;;2280495;61;1923;-88
2023/09/08 19:26:44;234782.00;0.78;405.78;0.00;0.00;0.62;;;;;27.20;1.00;;;;;;2280642;61;1716;-88
2023/09/08 19:29:11;356719.00;1.19;615.41;0.00;0.00;0.62;;;;;27.20;1.00;;;;;;2280659;61;1399;-90
2023/09/08 19:31:38;520718.00;1.74;897.50;123158.00;0.41;213.53;;;;;27.00;1.00;;;;;;2280471;61;1470;-89
2023/09/08 19:34:06;134617.00;0.45;233.29;0.00;0.00;0.62;;;;;27.00;1.00;;;;;;2280279;61;1013;-89
2023/09/08 19:36:33;202761.00;0.68;350.68;0.00;0.00;0.62;;;;;27.00;1.00;;;;;;2280348;61;1683;-88
2023/09/08 19:39:02;344610.00;1.15;594.60;0.00;0.00;0.62;;;;;27.00;1.00;;;;;;2280199;61;1638;-88
2023/09/08 19:41:29;166816.00;0.56;288.78;0.00;0.00;0.62;;;;;26.80;1.00;;;;;;2280286;61;1164;-88
2023/09/08 19:43:56;287494.00;0.96;496.42;0.00;0.00;0.62;;;;;26.80;1.00;;;;;;2280167;61;1910;-91
2023/09/08 19:46:23;343111.00;1.14;592.02;36569.00;0.12;63.95;;;;;26.80;1.00;;;;;;2280232;61;1023;-90
2023/09/08 19:48:50;756537.00;2.52;1305.43;60705.00;0.20;105.70;;;;;26.60;1.00;;;;;;2280190;61;1620;-88
2023/09/08 19:51:18;775872.00;2.59;1339.08;89054.00;0.30;154.67;;;;;26.60;1.00;;;;;;2280222;61;1059;-89
2023/09/08 19:53:45;1027055.00;3.42;1780.45;49006.00;0.16;85.47;;;;;26.60;1.00;;;;;;2280353;61;1251;-88
2023/09/08 19:56:14;1053041.00;3.51;1826.64;68304.00;0.23;118.83;;;;;26.60;1.00;;;;;;2280316;61;1072;-88
2023/09/08 19:58:42;1163862.00;3.88;2025.02;60995.00;0.20;106.20;;;;;26.60;1.00;;;;;;2280252;61;1322;-89
2023/09/08 20:01:13;1273862.00;4.25;2224.35;59752.00;0.20;104.05;;;;;26.50;1.00;;;;;;2280231;61;977;-90
2023/09/08 20:03:40;1057752.00;3.53;1835.03;76890.00;0.26;133.66;;;;;26.60;1.00;;;;;;2280213;61;2000;-88
2023/09/08 20:06:07;1225597.00;4.09;2136.57;48033.00;0.16;83.78;;;;;26.20;1.00;;;;;;2280116;61;1570;-87
2023/09/08 20:08:34;1268994.00;4.23;2215.47;77269.00;0.26;134.32;;;;;26.20;1.00;;;;;;2280245;61;1554;-88
2023/09/08 20:11:01;862324.00;2.87;1490.04;56543.00;0.19;98.50;;;;;26.20;1.00;;;;;;2280119;61;1536;-87
2023/09/08 20:13:29;955618.00;3.19;1654.02;60748.00;0.20;105.77;;;;;26.10;1.00;;;;;;2280359;61;935;-89
2023/09/08 20:16:00;787670.00;2.63;1359.63;13490.00;0.04;24.00;;;;;26.00;1.00;;;;;;2280202;61;1607;-88
2023/09/08 20:18:28;596621.00;1.99;1028.39;0.00;0.00;0.62;;;;;26.00;1.00;;;;;;2280280;61;1634;-88
2023/09/08 20:20:56;474829.00;1.58;818.50;12669.00;0.04;22.57;;;;;26.00;1.00;;;;;;2280280;61;1149;-87
2023/09/08 20:23:24;952506.00;3.18;1648.53;52244.00;0.17;91.07;;;;;26.00;1.00;;;;;;2280183;61;1919;-87
2023/09/08 20:25:52;922359.00;3.07;1595.42;14518.00;0.05;25.78;;;;;26.00;1.00;;;;;;2280108;61;995;-89
2023/09/08 20:28:19;745360.00;2.48;1285.99;23704.00;0.08;41.68;;;;;26.00;1.00;;;;;;2280169;61;1804;-91
2023/09/08 20:30:50;433084.00;1.44;746.69;0.00;0.00;0.62;;;;;26.10;1.00;;;;;;2280230;61;1693;-89
2023/09/08 20:33:18;611851.00;2.04;1054.69;10164.00;0.03;18.23;;;;;26.10;1.00;;;;;;2280088;61;1434;-87
2023/09/08 20:35:45;501603.00;1.67;864.58;19961.00;0.07;35.20;;;;;26.00;1.00;;;;;;2280228;61;1511;-88
2023/09/08 20:38:14;489643.00;1.63;843.99;6520.00;0.02;11.92;;;;;26.10;1.00;;;;;;2280086;61;1483;-88
2023/09/08 20:40:48;513873.00;1.71;885.71;8259.00;0.03;14.93;;;;;26.20;1.00;;;;;;2279978;61;1485;-88
2023/09/08 20:43:15;716563.00;2.39;1235.97;207820.00;0.69;359.38;;;;;26.00;1.00;;;;;;2280219;61;1903;-88
2023/09/08 20:45:43;507166.00;1.69;874.16;17358.00;0.06;30.69;;;;;26.00;1.00;;;;;;2279913;61;1822;-87
2023/09/08 20:48:11;573612.00;1.91;988.68;51776.00;0.17;90.26;;;;;25.90;1.00;;;;;;2280087;61;1429;-88
2023/09/08 20:50:38;707029.00;2.36;1219.43;16280.00;0.05;28.83;;;;;25.80;1.00;;;;;;2280178;61;1615;-89
2023/09/08 20:53:05;710446.00;2.37;1225.36;76327.00;0.25;132.69;;;;;25.70;1.00;;;;;;2280224;61;1386;-88
2023/09/08 20:55:32;871156.00;2.90;1505.52;18929.00;0.06;33.42;;;;;25.80;1.00;;;;;;2280061;61;1173;-87
2023/09/08 20:57:59;778222.00;2.59;1343.17;61984.00;0.21;107.91;;;;;25.70;1.00;;;;;;2280124;61;1020;-88
2023/09/08 21:00:28;686143.00;2.29;1183.22;22575.00;0.08;39.73;;;;;25.50;1.00;;;;;;2280065;61;1464;-88
2023/09/08 21:02:55;696936.00;2.32;1201.93;8988.00;0.03;16.20;;;;;25.60;1.00;;;;;;2280062;61;2009;-88
2023/09/08 21:05:24;433064.00;1.44;746.65;0.00;0.00;0.62;;;;;25.50;1.00;;;;;;2280074;61;2008;-88
2023/09/08 21:07:51;779233.00;2.60;1344.93;38906.00;0.13;68.00;;;;;25.50;1.00;;;;;;2280103;61;1466;-87
2023/09/08 21:10:17;861076.00;2.87;1487.86;118589.00;0.40;205.65;;;;;25.60;1.00;;;;;;2280066;61;1634;-87
2023/09/08 21:12:44;570713.00;1.90;983.68;45629.00;0.15;79.63;;;;;25.50;1.00;;;;;;2280044;61;1008;-89
2023/09/08 21:15:11;805384.00;2.68;1390.52;0.00;0.00;0.62;;;;;25.40;1.00;;;;;;2280009;61;1605;-89
2023/09/08 21:17:38;787837.00;2.63;1359.92;134709.00;0.45;233.45;;;;;25.40;1.00;;;;;;2280053;61;1677;-88
2023/09/08 21:20:07;518528.00;1.73;893.73;42296.00;0.14;73.86;;;;;25.30;1.00;;;;;;2280067;61;1292;-88
2023/09/08 21:22:36;989038.00;3.30;1713.07;151846.00;0.51;262.99;;;;;25.40;1.00;;;;;;2279962;61;1737;-87
2023/09/08 21:25:04;647465.00;2.16;1116.25;15912.00;0.05;28.19;;;;;25.50;1.00;;;;;;2280042;61;1998;-89
2023/09/08 21:27:31;447520.00;1.49;771.52;4862.00;0.02;9.05;;;;;25.40;1.00;;;;;;2280036;61;1516;-89
2023/09/08 21:29:58;644419.00;2.15;1110.98;12650.00;0.04;22.54;;;;;25.30;1.00;;;;;;2280070;61;1767;-88
2023/09/08 21:32:25;720951.00;2.40;1243.59;76559.00;0.26;133.09;;;;;25.20;1.00;;;;;;2279997;61;1745;-87
2023/09/08 21:34:53;653234.00;2.18;1126.23;41409.00;0.14;72.33;;;;;25.20;1.00;;;;;;2279987;61;1105;-88
2023/09/08 21:37:20;605557.00;2.02;1043.82;66924.00;0.22;116.44;;;;;25.20;1.00;;;;;;2280001;61;1399;-89
2023/09/08 21:39:49;744718.00;2.48;1284.87;71797.00;0.24;124.87;;;;;25.20;1.00;;;;;;2279950;61;1378;-87
2023/09/08 21:42:16;629007.00;2.10;1084.33;13120.00;0.04;23.35;;;;;25.20;1.00;;;;;;2280087;61;973;-89
2023/09/08 21:44:43;636410.00;2.12;1097.13;0.00;0.00;0.62;;;;;25.30;1.00;;;;;;2279843;61;2006;-89
2023/09/08 21:47:10;919162.00;3.06;1589.80;93919.00;0.31;163.07;;;;;25.30;1.00;;;;;;2280042;61;960;-89
2023/09/08 21:49:37;619780.00;2.07;1068.39;1626.00;0.01;3.44;;;;;25.40;1.00;;;;;;2279801;61;1707;-88
2023/09/08 21:52:05;672792.00;2.24;1160.09;0.00;0.00;0.62;;;;;25.30;1.00;;;;;;2279984;61;1227;-91
2023/09/08 21:54:32;724128.00;2.41;1249.10;49885.00;0.17;86.99;;;;;25.20;1.00;;;;;;2292586;39;3607;-89
2023/09/08 21:57:00;428921.00;1.43;739.53;47221.00;0.16;82.38;;;;;25.30;1.00;;;;;;2279949;60;1540;-89
2023/09/08 21:59:27;1116524.00;3.72;1940.00;95291.00;0.32;165.44;;;;;25.10;1.00;;;;;;2278082;60;1237;-88
2023/09/08 22:01:55;754779.00;2.52;1302.37;20500.00;0.07;36.14;;;;;25.10;1.00;;;;;;2276462;61;1578;-88